»·PEaware :: LBQ783 KMRY-KRDD

LBQ783 :: KMRY-KRDD

FLIGHT INFORMATION

Flight Status: Arrived
Operator: Unknown
More flights by this operator :: More flights under this callsign
Pilot: Walter H. (552)
Aircraft: BEECH AIRCRAFT SUPER KING AIR 350
(B350)
More flights by this aircraft type
Origin: KMRY Monterey Peninsula
United States
Destination: KRDD Redding Mun
United States
More flights between these airports :: More routes between these airports
Route: +MRY5 SHOEY V27 PYE RBL RDD
File this flight plan on PilotEdge
Remarks:
Altitude:
(Current/Filed)
24,000ft
Speed:
(Current/Filed)
300kts
Departed: 11-Jul-20 11:34 AM
Arrived: 11-Jul-20 12:34 PM
Distance/Time
Traveled:
236nm/1:00
Distance/Time
To Go:
Arrived

Flight Plot

Page will automatically refresh every two minutes.

Flight plan parsing failed; only flown route is shown


Map Options




Map Legend


Flown Route
Filed Route
Departure Airport
Arrival Airport
Navaid (VOR, NDB)
Fix

Horizontal Profiles

Position Reports

Time Latitude Longitude Heading Altitude Ground
Speed
11-Jul-20 11:07 36.591856 -121.850164 167 151ft 0kts
11-Jul-20 11:09 36.591856 -121.850164 167 151ft 0kts
11-Jul-20 11:09 36.591856 -121.850164 167 151ft 0kts
11-Jul-20 11:10 36.591856 -121.850164 167 151ft 0kts
11-Jul-20 11:11 36.591856 -121.850164 167 151ft 0kts
11-Jul-20 11:13 36.591856 -121.850164 167 151ft 0kts
11-Jul-20 11:13 36.591848 -121.850163 168 152ft 0kts
11-Jul-20 11:14 36.591825 -121.850157 167 152ft 0kts
11-Jul-20 11:15 36.591825 -121.850157 167 152ft 0kts
11-Jul-20 11:16 36.591825 -121.850157 167 152ft 0kts
11-Jul-20 11:17 36.591825 -121.850157 167 152ft 0kts
11-Jul-20 11:18 36.591825 -121.850157 167 152ft 0kts
11-Jul-20 11:19 36.591825 -121.850157 167 152ft 0kts
11-Jul-20 11:20 36.591825 -121.850157 167 152ft 0kts
11-Jul-20 11:21 36.591825 -121.850157 167 152ft 0kts
11-Jul-20 11:22 36.591825 -121.850157 167 152ft 0kts
11-Jul-20 11:23 36.591825 -121.850157 167 152ft 0kts
11-Jul-20 11:24 36.591825 -121.850157 167 152ft 0kts
11-Jul-20 11:25 36.591825 -121.850157 167 152ft 0kts
11-Jul-20 11:26 36.591825 -121.850157 167 152ft 0kts
11-Jul-20 11:27 36.591401 -121.850220 217 154ft 8kts
11-Jul-20 11:28 36.589614 -121.849470 113 166ft 13kts
11-Jul-20 11:29 36.588084 -121.844997 112 187ft 10kts
11-Jul-20 11:30 36.585648 -121.841138 186 229ft 15kts
11-Jul-20 11:31 36.583251 -121.836147 111 244ft 22kts
11-Jul-20 11:32 36.582799 -121.834126 86 230ft 10kts
11-Jul-20 11:33 36.586803 -121.843895 294 249ft 124kts
11-Jul-20 11:34 36.599226 -121.886665 318 2384ft 138kts
11-Jul-20 11:35 36.638982 -121.892495 343 4397ft 153kts
11-Jul-20 11:36 36.682039 -121.907994 339 6087ft 176kts
11-Jul-20 11:37 36.715488 -121.944566 280 7719ft 174kts
11-Jul-20 11:38 36.726064 -122.009425 278 8981ft 199kts
11-Jul-20 11:39 36.754443 -122.063623 344 10445ft 219kts
11-Jul-20 11:40 36.810867 -122.094644 333 11824ft 226kts
11-Jul-20 11:41 36.868046 -122.128837 333 13112ft 231kts
11-Jul-20 11:42 36.926491 -122.163874 333 14285ft 236kts
11-Jul-20 11:43 36.986095 -122.199658 332 15370ft 239kts
11-Jul-20 11:44 37.046252 -122.235834 331 16510ft 241kts
11-Jul-20 11:45 37.106924 -122.272396 330 17590ft 243kts
11-Jul-20 11:46 37.168233 -122.309420 330 18541ft 246kts
11-Jul-20 11:47 37.230147 -122.346869 329 19411ft 249kts
11-Jul-20 11:48 37.292964 -122.384934 329 20216ft 252kts
11-Jul-20 11:49 37.356582 -122.423556 329 20960ft 255kts
11-Jul-20 11:50 37.415971 -122.459673 328 22363ft 229kts
11-Jul-20 11:51 37.473938 -122.495014 327 23124ft 233kts
11-Jul-20 11:52 37.532523 -122.530767 327 23850ft 236kts
11-Jul-20 11:53 37.593379 -122.567999 328 24132ft 256kts
11-Jul-20 11:54 37.659933 -122.608745 328 24131ft 275kts
11-Jul-20 11:55 37.730153 -122.651835 328 24136ft 286kts
11-Jul-20 11:56 37.802620 -122.696406 328 24127ft 293kts
11-Jul-20 11:57 37.876564 -122.741992 328 24101ft 298kts
11-Jul-20 11:58 37.951379 -122.788220 328 24082ft 300kts
11-Jul-20 11:59 38.026459 -122.834721 328 24082ft 301kts
11-Jul-20 12:00 38.106108 -122.859295 9 24116ft 314kts
11-Jul-20 12:01 38.191730 -122.833723 10 24077ft 316kts
11-Jul-20 12:02 38.277041 -122.807711 10 24078ft 316kts
11-Jul-20 12:03 38.362406 -122.781607 10 24078ft 316kts
11-Jul-20 12:04 38.447542 -122.755509 10 24079ft 316kts
11-Jul-20 12:05 38.533180 -122.729194 10 24079ft 316kts
11-Jul-20 12:06 38.618623 -122.702875 10 24080ft 317kts
11-Jul-20 12:07 38.704258 -122.676430 10 24081ft 317kts
11-Jul-20 12:08 38.790033 -122.649879 10 24066ft 318kts
11-Jul-20 12:09 38.875884 -122.623237 10 24082ft 317kts
11-Jul-20 12:10 38.961702 -122.596515 9 24083ft 319kts
11-Jul-20 12:11 39.048449 -122.569473 8 23788ft 331kts
11-Jul-20 12:12 39.140223 -122.540791 9 22658ft 350kts
11-Jul-20 12:13 39.237192 -122.510372 9 21200ft 364kts
11-Jul-20 12:14 39.335498 -122.479448 10 19731ft 366kts
11-Jul-20 12:15 39.434099 -122.448348 10 18250ft 364kts
11-Jul-20 12:16 39.529415 -122.418192 10 16451ft 343kts
11-Jul-20 12:17 39.619877 -122.389505 11 14457ft 329kts
11-Jul-20 12:18 39.707145 -122.361752 11 12477ft 320kts
11-Jul-20 12:19 39.792351 -122.334563 11 10486ft 311kts
11-Jul-20 12:20 39.873334 -122.308684 11 8567ft 281kts
11-Jul-20 12:21 39.942330 -122.286597 11 7497ft 225kts
11-Jul-20 12:22 39.994616 -122.269828 10 6624ft 174kts
11-Jul-20 12:23 40.040615 -122.255090 10 5802ft 167kts
11-Jul-20 12:24 40.090407 -122.239067 12 5114ft 207kts
11-Jul-20 12:25 40.148326 -122.234515 343 4327ft 214kts
11-Jul-20 12:26 40.206512 -122.252916 346 3606ft 213kts
11-Jul-20 12:27 40.263227 -122.270340 346 3091ft 207kts
11-Jul-20 12:28 40.318708 -122.279567 3 2589ft 202kts
11-Jul-20 12:29 40.371886 -122.290686 347 3035ft 198kts
11-Jul-20 12:30 40.421568 -122.295489 4 2625ft 162kts
11-Jul-20 12:31 40.462274 -122.294974 0 1472ft 128kts
11-Jul-20 12:32 40.497649 -122.294920 0 592ft 117kts
11-Jul-20 12:33 40.508399 -122.296053 301 497ft 0kts
11-Jul-20 12:34 40.508380 -122.298635 4 497ft 11kts
11-Jul-20 12:35 40.508979 -122.297979 178 497ft 0kts
11-Jul-20 12:36 40.508979 -122.297979 178 497ft 0kts

Navigation Log

Ident Type
Flight plan parsing failed, navigation log unavailable